Time;durP1;ratioP1;P1;durP2;ratioP2;P2;SDS_P1;SDS_P2;PMS_P1;PMS_P2;Temp;Humidity;BMP_temperature;BMP_pressure;BME280_temperature;BME280_humidity;BME280_pressure;Samples;Min_cycle;Max_cycle;Signal;HPM_P1;HPM_P2
2023/02/12 00:00:51;;;;;;;1.83;1.65;;;;;;;7.62;56.42;101172.50;4370408;32;33765;-93
2023/02/12 00:03:42;;;;;;;0.30;0.30;;;;;;;7.49;56.88;101187.50;4383224;32;33837;-92
2023/02/12 00:06:25;;;;;;;6.32;1.65;;;;;;;7.40;57.01;101183.19;4387584;32;33196;-93
2023/02/12 00:09:08;;;;;;;0.75;0.75;;;;;;;7.65;56.34;101175.97;4387532;32;33325;-92
2023/02/12 00:11:59;;;;;;;0.03;0.03;;;;;;;7.55;56.62;101173.41;4402244;32;32569;-91
2023/02/12 00:14:38;;;;;;;2.20;0.95;;;;;;;7.49;56.87;101176.97;4393327;32;32783;-92
2023/02/12 00:17:29;;;;;;;1.55;0.82;;;;;;;7.64;56.40;101182.13;4392041;32;32760;-91
2023/02/12 00:20:09;;;;;;;3.58;0.75;;;;;;;7.80;55.86;101198.59;4386369;32;33278;-91
2023/02/12 00:23:00;;;;;;;1.20;1.20;;;;;;;7.61;56.36;101207.56;4380540;32;33482;-91
2023/02/12 00:25:41;;;;;;;1.10;0.65;;;;;;;7.35;57.11;101211.25;4389160;32;33037;-93
2023/02/12 00:28:32;;;;;;;1.45;1.45;;;;;;;7.13;57.61;101193.94;4365887;32;32554;-92
2023/02/12 00:31:33;;;;;;;1.58;1.48;;;;;;;7.35;57.50;101206.00;4359631;32;33559;-91
2023/02/12 00:34:16;;;;;;;1.00;1.00;;;;;;;7.14;57.99;101212.31;4350063;32;35280;-93
2023/02/12 00:36:58;;;;;;;0.20;0.20;;;;;;;7.07;58.48;101214.97;4381208;32;32906;-92
2023/02/12 00:39:40;;;;;;;1.12;1.05;;;;;;;6.73;59.61;101215.19;4377120;32;32742;-92
2023/02/12 00:42:23;;;;;;;0.93;0.90;;;;;;;6.97;58.91;101198.41;4377400;32;33342;-92
2023/02/12 00:45:05;;;;;;;1.02;1.02;;;;;;;6.73;59.93;101196.81;4393939;32;32423;-92
2023/02/12 00:48:00;;;;;;;1.12;0.77;;;;;;;6.93;59.37;101199.31;4377482;32;35521;-93
2023/02/12 00:50:55;;;;;;;0.95;0.95;;;;;;;7.23;58.72;101190.34;4366444;32;34322;-93
2023/02/12 00:53:37;;;;;;;1.15;1.05;;;;;;;7.18;58.78;101190.38;4371945;32;32494;-93
2023/02/12 00:56:19;;;;;;;16.15;2.33;;;;;;;7.16;58.74;101178.12;4379447;32;34709;-92
2023/02/12 00:59:01;;;;;;;0.82;0.82;;;;;;;7.16;58.67;101179.00;4359174;32;32846;-92
2023/02/12 01:01:55;;;;;;;0.68;0.68;;;;;;;7.10;58.89;101176.44;4372772;32;34377;-93
2023/02/12 01:04:37;;;;;;;0.03;0.03;;;;;;;7.27;58.66;101176.31;4348644;32;32275;-93
2023/02/12 01:07:28;;;;;;;0.62;0.62;;;;;;;7.06;59.28;101185.22;4391645;32;32625;-92
2023/02/12 01:10:10;;;;;;;1.23;1.12;;;;;;;7.00;59.77;101181.78;4361020;32;20121;-92
2023/02/12 01:13:04;;;;;;;3.60;0.77;;;;;;;7.03;59.67;101184.38;4368838;32;34420;-93
2023/02/12 01:15:43;;;;;;;0.57;0.57;;;;;;;6.95;60.09;101178.31;4373447;32;32142;-93
2023/02/12 01:18:25;;;;;;;2.40;1.58;;;;;;;6.97;60.07;101181.78;4385002;32;32574;-93
2023/02/12 01:21:13;;;;;;;2.53;0.68;;;;;;;6.84;60.46;101166.13;4382668;32;33196;-92
2023/02/12 01:24:04;;;;;;;0.55;0.55;;;;;;;7.04;59.98;101165.13;4379873;32;32861;-92
2023/02/12 01:26:44;;;;;;;0.62;0.62;;;;;;;6.97;60.08;101158.16;4357780;32;33129;-92
2023/02/12 01:29:35;;;;;;;0.45;0.45;;;;;;;7.07;60.00;101157.19;4370374;32;33744;-92
2023/02/12 01:32:18;;;;;;;0.30;0.30;;;;;;;6.84;60.59;101162.63;4368342;32;33146;-94
2023/02/12 01:35:00;;;;;;;4.82;2.00;;;;;;;6.82;60.87;101157.38;4372090;32;34484;-94
2023/02/12 01:37:42;;;;;;;1.65;1.55;;;;;;;7.18;60.03;101160.62;4366273;32;31856;-94
2023/02/12 01:40:24;;;;;;;0.05;0.05;;;;;;;6.79;60.85;101154.78;4365256;32;32804;-91
2023/02/12 01:43:10;;;;;;;0.35;0.35;;;;;;;7.09;60.33;101155.44;4367829;32;32277;-93
2023/02/12 01:46:07;;;;;;;0.62;0.62;;;;;;;7.13;60.32;101154.53;4359547;32;34469;-92
2023/02/12 01:48:46;;;;;;;7.80;3.17;;;;;;;6.96;60.86;101151.16;4377545;32;32839;-94
2023/02/12 01:51:38;;;;;;;0.70;0.70;;;;;;;6.81;61.12;101142.50;4373962;32;32847;-92
2023/02/12 01:54:19;;;;;;;3.28;2.33;;;;;;;6.89;61.26;101138.09;4379140;32;33041;-92
2023/02/12 02:00:54;;;;;;;0.73;0.73;;;;;;;6.54;62.52;101140.06;4390200;32;32755;-94
2023/02/12 02:03:51;;;;;;;0.25;0.25;;;;;;;6.76;61.84;101152.16;4395176;32;34486;-93
2023/02/12 02:06:34;;;;;;;0.10;0.10;;;;;;;6.81;62.08;101149.50;4365094;32;32548;-93
2023/02/12 02:09:29;;;;;;;1.48;1.37;;;;;;;6.66;62.01;101159.22;4390649;32;32759;-93
2023/02/12 02:15:18;;;;;;;0.32;0.32;;;;;;;6.46;62.79;101165.44;4380493;32;33072;-93
2023/02/12 02:18:07;;;;;;;0.85;0.68;;;;;;;6.92;61.68;101159.03;4370179;32;34149;-92
2023/02/12 02:21:17;;;;;;;1.73;1.20;;;;;;;6.88;61.64;101161.69;4403655;32;34798;-93
2023/02/12 02:24:12;;;;;;;0.30;0.30;;;;;;;6.87;61.55;101160.84;4378398;32;32458;-93
2023/02/12 02:27:14;;;;;;;0.95;0.93;;;;;;;6.84;61.99;101166.13;4355453;32;31773;-93
2023/02/12 02:29:54;;;;;;;0.90;0.90;;;;;;;7.09;61.23;101166.81;4365460;32;32881;-90
2023/02/12 02:33:02;;;;;;;2.05;1.87;;;;;;;6.89;61.64;101156.47;4376172;32;33990;-91
2023/02/12 02:35:51;;;;;;;8.75;2.17;;;;;;;7.16;60.83;101160.62;4359555;32;32911;-91
2023/02/12 02:39:15;;;;;;;8.73;1.75;;;;;;;7.05;61.17;101179.97;4378953;32;32663;-94
2023/02/12 02:42:10;;;;;;;0.52;0.43;;;;;;;7.08;60.98;101175.59;4376508;32;33702;-91
2023/02/12 02:44:54;;;;;;;1.55;1.42;;;;;;;7.00;61.35;101185.25;4362666;32;33660;-90
2023/02/12 02:47:53;;;;;;;2.30;0.80;;;;;;;6.70;62.16;101195.97;4381786;32;31828;-91
2023/02/12 02:50:35;;;;;;;;;;;;;;;6.86;61.80;101195.84;4408393;32;31698;-90
2023/02/12 02:53:09;;;;;;;0.50;0.50;;;;;;;7.01;61.64;101205.38;4393317;32;33670;-90
2023/02/12 02:55:47;;;;;;;1.58;1.48;;;;;;;7.05;61.26;101204.50;4397603;32;33488;-90
2023/02/12 02:58:26;;;;;;;0.85;0.75;;;;;;;6.54;62.61;101205.66;4380647;32;31958;-92
2023/02/12 03:01:01;;;;;;;3.53;1.87;;;;;;;6.66;62.63;101210.84;4390533;32;32823;-91
2023/02/12 03:04:03;;;;;;;0.93;0.93;;;;;;;6.11;64.69;101204.06;4396047;32;32530;-92
2023/02/12 03:06:39;;;;;;;11.65;5.55;;;;;;;6.37;64.08;101211.88;4397364;32;33607;-92
2023/02/12 03:09:33;;;;;;;1.55;1.10;;;;;;;6.09;64.67;101208.47;4404868;32;32105;-93
2023/02/12 03:12:22;;;;;;;1.02;1.02;;;;;;;6.52;63.48;101217.94;4363108;32;32551;-92
2023/02/12 03:15:22;;;;;;;1.55;1.45;;;;;;;6.29;64.08;101218.88;4359084;32;32973;-92
2023/02/12 03:17:50;;;;;;;1.90;1.80;;;;;;;6.40;64.37;101221.44;4346433;32;33007;-93
2023/02/12 03:20:48;;;;;;;0.80;0.80;;;;;;;6.64;63.35;101228.34;4399092;32;32501;-93
2023/02/12 03:23:36;;;;;;;2.37;2.28;;;;;;;6.97;62.06;101237.78;4363594;32;33755;-93
2023/02/12 03:26:38;;;;;;;0.37;0.37;;;;;;;6.76;62.19;101243.19;4365407;32;33789;-93
2023/02/12 03:29:17;;;;;;;2.28;1.37;;;;;;;6.72;62.93;101244.06;4391158;32;34235;-92
2023/02/12 03:32:43;;;;;;;0.37;0.37;;;;;;;6.62;63.50;101253.75;4390348;32;33414;-92
2023/02/12 03:35:51;;;;;;;1.15;0.88;;;;;;;6.73;63.29;101251.94;4418428;32;33256;-91
2023/02/12 03:38:50;;;;;;;3.28;2.22;;;;;;;6.79;63.13;101246.66;4392167;32;33853;-92
2023/02/12 03:42:04;;;;;;;0.45;0.45;;;;;;;6.61;63.72;101260.75;4377106;32;32337;-92
2023/02/12 03:44:52;;;;;;;3.87;3.03;;;;;;;7.00;62.55;101260.56;4383242;32;33864;-92
2023/02/12 03:47:45;;;;;;;0.20;0.20;;;;;;;6.62;63.85;101248.50;4381724;32;32547;-92
2023/02/12 03:50:54;;;;;;;1.42;1.40;;;;;;;6.55;64.11;101252.00;4390461;32;32660;-93
2023/02/12 03:53:36;;;;;;;1.95;1.77;;;;;;;6.75;63.80;101265.94;4370861;32;33213;-90
2023/02/12 03:56:40;;;;;;;1.30;1.23;;;;;;;6.46;64.70;101262.53;4396757;32;32064;-91
2023/02/12 03:59:23;;;;;;;4.20;2.30;;;;;;;6.14;65.66;101266.16;4381130;32;32581;-91
2023/02/12 04:02:16;;;;;;;0.93;0.93;;;;;;;6.27;65.18;101262.62;4369947;32;32884;-91
2023/02/12 04:05:23;;;;;;;0.75;0.70;;;;;;;6.39;64.92;101261.69;4414072;32;34374;-92
2023/02/12 04:08:05;;;;;;;0.75;0.75;;;;;;;6.30;65.74;101273.09;4361461;32;33093;-92
2023/02/12 04:11:12;;;;;;;0.50;0.50;;;;;;;6.32;65.64;101268.72;4390477;32;34097;-91
2023/02/12 04:14:07;;;;;;;1.75;1.65;;;;;;;6.22;66.20;101285.38;4391397;32;34189;-91
2023/02/12 04:17:17;;;;;;;0.82;0.82;;;;;;;6.15;66.09;101283.63;4384876;32;32786;-90
2023/02/12 04:20:37;;;;;;;2.25;2.15;;;;;;;6.40;65.38;101281.78;4356740;32;32402;-91
2023/02/12 04:23:47;;;;;;;3.08;2.85;;;;;;;6.31;65.44;101290.56;4361503;32;34287;-91
2023/02/12 04:26:36;;;;;;;2.62;2.42;;;;;;;6.24;65.07;101288.84;4400836;32;33160;-91
2023/02/12 04:29:49;;;;;;;1.40;1.40;;;;;;;6.20;65.91;101292.34;4391907;32;32314;-91
2023/02/12 04:32:40;;;;;;;2.03;1.67;;;;;;;6.17;66.02;101313.31;4353858;32;32944;-91
2023/02/12 04:35:39;;;;;;;1.02;0.93;;;;;;;5.70;67.47;101316.84;4354524;32;34427;-91
2023/02/12 04:38:25;;;;;;;1.20;1.12;;;;;;;6.31;65.62;101306.31;4358038;32;34120;-90
2023/02/12 04:41:27;;;;;;;1.70;1.60;;;;;;;6.46;65.12;101305.41;4350922;32;33335;-90
2023/02/12 04:44:14;;;;;;;3.42;1.40;;;;;;;6.52;64.66;101301.91;4381849;32;32442;-90
2023/02/12 04:46:57;;;;;;;1.80;0.82;;;;;;;6.56;64.55;101307.13;4380296;32;33075;-91
2023/02/12 04:49:45;;;;;;;2.03;1.87;;;;;;;6.40;65.31;101316.78;4369875;32;34242;-90
2023/02/12 04:52:27;;;;;;;3.22;2.15;;;;;;;6.34;65.32;101322.03;4397499;32;33702;-92
2023/02/12 04:55:21;;;;;;;0.13;0.13;;;;;;;6.27;65.71;101333.44;4385250;32;34775;-92
2023/02/12 04:58:17;;;;;;;0.43;0.43;;;;;;;6.20;65.78;101333.44;4353873;32;32837;-92
2023/02/12 05:01:09;;;;;;;0.60;0.60;;;;;;;6.19;65.66;101335.19;4360852;32;33191;-90
2023/02/12 05:03:48;;;;;;;1.17;1.12;;;;;;;6.14;66.27;101339.56;4362953;32;33031;-92
2023/02/12 05:06:39;;;;;;;1.90;1.80;;;;;;;6.12;65.86;101336.97;4350884;32;32977;-92
2023/02/12 05:09:20;;;;;;;0.50;0.50;;;;;;;6.37;64.88;101348.28;4361759;32;33340;-91
2023/02/12 05:12:02;;;;;;;1.35;1.25;;;;;;;6.57;64.27;101339.50;4383469;32;33912;-91
2023/02/12 05:14:44;;;;;;;2.00;1.90;;;;;;;6.66;63.86;101339.47;4393030;32;32865;-91
2023/02/12 05:17:26;;;;;;;2.72;1.70;;;;;;;6.45;64.81;101350.00;4374648;32;32481;-92
2023/02/12 05:20:20;;;;;;;5.62;1.30;;;;;;;6.29;65.22;101354.41;4385169;32;34406;-91
2023/02/12 05:23:02;;;;;;;1.02;1.02;;;;;;;6.22;65.43;101353.56;4386568;32;33315;-91
2023/02/12 05:25:53;;;;;;;1.65;1.58;;;;;;;6.32;64.89;101359.66;4335409;32;33754;-89
2023/02/12 05:28:22;;;;;;;0.10;0.10;;;;;;;6.25;65.25;101363.16;4366223;32;34081;-89
2023/02/12 05:30:50;;;;;;;0.70;0.70;;;;;;;6.50;64.47;101371.84;4367040;32;32721;-89
2023/02/12 05:33:18;;;;;;;1.95;1.85;;;;;;;6.47;64.24;101385.00;4365234;32;33125;-91
2023/02/12 05:35:45;;;;;;;1.45;1.42;;;;;;;6.37;64.68;101384.16;4362337;32;34427;-90
2023/02/12 05:38:33;;;;;;;1.50;1.50;;;;;;;6.28;65.09;101385.03;4360049;32;33077;-90
2023/02/12 05:41:08;;;;;;;1.45;0.62;;;;;;;6.35;64.80;101373.63;4341681;32;32910;-87
2023/02/12 05:43:35;;;;;;;4.20;2.28;;;;;;;6.47;64.31;101388.50;4355195;32;33328;-87
2023/02/12 05:46:05;;;;;;;11.20;2.45;;;;;;;6.00;65.44;101399.00;4357530;32;34072;-88
2023/02/12 05:48:33;;;;;;;2.97;1.35;;;;;;;6.37;64.27;101392.03;4354108;32;32685;-90
2023/02/12 05:51:38;;;;;;;0.88;0.85;;;;;;;6.31;65.08;101395.50;4370336;32;33222;-90
2023/02/12 05:54:19;;;;;;;1.58;1.48;;;;;;;6.15;65.29;101399.87;4374775;32;33750;-89
2023/02/12 05:56:49;;;;;;;2.37;0.75;;;;;;;6.06;65.90;101412.13;4376636;32;33847;-90
2023/02/12 05:59:20;;;;;;;3.17;2.95;;;;;;;5.79;66.55;101421.69;4370519;32;32203;-93
2023/02/12 06:02:12;;;;;;;0.73;0.73;;;;;;;5.97;66.42;101412.13;4387162;32;33482;-93
2023/02/12 06:05:03;;;;;;;0.62;0.62;;;;;;;6.13;65.58;101421.75;4391664;32;33254;-93
2023/02/12 06:07:42;;;;;;;2.83;1.90;;;;;;;5.78;66.63;101430.41;4419028;32;33160;-90
2023/02/12 06:10:34;;;;;;;0.20;0.20;;;;;;;6.09;65.98;101438.34;4397338;32;32368;-93
2023/02/12 06:17:37;;;;;;;1.83;1.62;;;;;;;6.53;63.92;101435.72;4394670;32;34693;-91
2023/02/12 06:20:19;;;;;;;1.45;1.12;;;;;;;6.40;64.77;101447.97;4389540;32;32584;-91
2023/02/12 06:23:13;;;;;;;0.82;0.82;;;;;;;6.29;65.17;101441.84;4392135;32;34745;-91
2023/02/12 06:25:56;;;;;;;0.20;0.20;;;;;;;6.53;64.59;101451.47;4388724;32;32828;-90
2023/02/12 06:28:38;;;;;;;0.55;0.55;;;;;;;6.46;64.79;101459.31;4371214;32;33202;-93
2023/02/12 06:31:26;;;;;;;1.33;1.20;;;;;;;6.45;64.27;101460.22;4388995;32;33101;-93
2023/02/12 06:34:17;;;;;;;1.37;1.30;;;;;;;6.07;65.82;101455.81;4393609;32;31659;-93
2023/02/12 06:36:56;;;;;;;0.75;0.75;;;;;;;6.36;65.14;101453.22;4415525;32;31688;-92
2023/02/12 06:39:48;;;;;;;1.20;1.17;;;;;;;6.29;65.54;101464.59;4372684;32;32619;-92
2023/02/12 06:42:30;;;;;;;1.00;1.00;;;;;;;6.19;65.87;101457.59;4370094;32;33764;-93
2023/02/12 06:45:21;;;;;;;1.52;0.90;;;;;;;6.31;65.58;101453.22;4372749;32;33117;-91
2023/02/12 06:48:04;;;;;;;1.00;1.00;;;;;;;6.25;65.86;101452.34;4355661;32;32723;-93
2023/02/12 06:50:55;;;;;;;1.55;1.52;;;;;;;6.09;66.55;101462.84;4393859;32;32487;-90
2023/02/12 06:53:35;;;;;;;0.55;0.55;;;;;;;6.44;64.97;101459.34;4384215;32;32544;-91
2023/02/12 06:56:26;;;;;;;0.35;0.35;;;;;;;6.14;65.98;101475.94;4381779;32;32640;-91
2023/02/12 06:59:05;;;;;;;0.57;0.57;;;;;;;6.58;64.83;101477.72;4347215;32;33521;-90
2023/02/12 07:01:47;;;;;;;;;;;;;;;6.76;64.39;101475.06;4379284;32;32380;-92
2023/02/12 07:04:16;;;;;;;0.65;0.65;;;;;;;6.88;63.90;101476.78;4349577;32;34018;-92
2023/02/12 07:07:10;;;;;;;0.88;0.88;;;;;;;6.57;64.63;101486.47;4379814;32;32884;-92
2023/02/12 07:09:49;;;;;;;1.23;1.17;;;;;;;7.14;63.28;101489.88;4370717;32;32969;-88
2023/02/12 07:12:17;;;;;;;0.50;0.50;;;;;;;7.20;62.75;101497.72;4387878;32;33729;-88
2023/02/12 07:14:45;;;;;;;0.43;0.43;;;;;;;7.12;63.11;101496.88;4375501;32;33095;-88
2023/02/12 07:17:13;;;;;;;1.17;0.55;;;;;;;7.28;62.73;101502.97;4388217;32;32170;-88
2023/02/12 07:19:41;;;;;;;4.75;1.65;;;;;;;7.61;61.78;101502.84;4385809;32;33819;-88
2023/02/12 07:22:08;;;;;;;1.58;1.50;;;;;;;7.88;60.97;101514.09;4388318;32;34594;-87
2023/02/12 07:24:38;;;;;;;0.77;0.77;;;;;;;7.88;61.02;101507.13;4376678;32;34538;-90
2023/02/12 07:27:07;;;;;;;0.60;0.60;;;;;;;7.96;60.88;101514.94;4370788;32;31732;-91
2023/02/12 07:29:39;;;;;;;1.95;1.85;;;;;;;8.05;60.55;101524.53;4380793;32;33930;-91
2023/02/12 07:32:18;;;;;;;0.68;0.68;;;;;;;7.94;61.21;101525.47;4386565;32;33606;-90
2023/02/12 07:35:06;;;;;;;0.20;0.20;;;;;;;7.74;61.68;101532.59;4374510;32;32968;-90
2023/02/12 07:37:58;;;;;;;0.82;0.75;;;;;;;8.07;60.81;101538.53;4376493;32;32159;-91
2023/02/12 07:40:31;;;;;;;0.52;0.52;;;;;;;8.45;59.57;101547.12;4378586;32;33150;-90
2023/02/12 07:43:05;;;;;;;0.30;0.30;;;;;;;8.39;59.72;101541.87;4382787;32;34208;-91
2023/02/12 07:45:35;;;;;;;0.00;0.00;;;;;;;8.34;59.95;101538.37;4374384;32;32667;-91
2023/02/12 07:48:05;;;;;;;0.37;0.37;;;;;;;8.59;59.09;101541.78;4385184;32;32467;-91
2023/02/12 07:51:03;;;;;;;0.50;0.50;;;;;;;8.50;59.45;101548.84;4372175;32;32873;-91
2023/02/12 07:53:33;;;;;;;2.25;0.60;;;;;;;8.67;58.89;101557.50;4396465;32;33497;-91
2023/02/12 07:56:16;;;;;;;0.62;0.62;;;;;;;8.96;58.05;101552.84;4371698;32;34557;-91
2023/02/12 07:58:52;;;;;;;0.25;0.25;;;;;;;8.87;58.28;101552.91;4374998;32;32361;-91
2023/02/12 08:01:27;;;;;;;1.00;0.50;;;;;;;8.66;58.99;101561.00;4370432;32;33026;-91
2023/02/12 08:04:02;;;;;;;2.17;1.02;;;;;;;8.70;58.70;101557.47;4377283;32;32516;-92
2023/02/12 08:06:34;;;;;;;0.90;0.80;;;;;;;9.19;57.49;101549.13;4359428;32;31941;-88
2023/02/12 08:09:26;;;;;;;0.90;0.90;;;;;;;9.40;56.83;101555.91;4369864;32;32423;-92
2023/02/12 08:11:57;;;;;;;0.13;0.13;;;;;;;9.15;57.31;101557.94;4382068;32;32926;-89
2023/02/12 08:14:28;;;;;;;0.55;0.55;;;;;;;9.26;57.11;101556.09;4376371;32;33125;-88
2023/02/12 08:16:59;;;;;;;0.68;0.68;;;;;;;9.79;55.60;101551.97;4383084;32;33609;-88
2023/02/12 08:19:27;;;;;;;1.10;0.65;;;;;;;9.32;57.04;101563.94;4381296;32;33191;-90
2023/02/12 08:22:05;;;;;;;2.85;0.93;;;;;;;9.39;56.86;101570.88;4381741;32;32964;-88
2023/02/12 08:24:32;;;;;;;1.65;1.55;;;;;;;9.55;56.27;101576.00;4381823;32;33135;-88
2023/02/12 08:27:01;;;;;;;0.52;0.52;;;;;;;9.08;57.81;101580.00;4383469;32;32481;-88
2023/02/12 08:29:39;;;;;;;;;;;;;;;;;;;;;
2023/02/12 08:32:20;;;;;;;0.65;0.65;;;;;;;9.94;55.64;101574.66;4387098;32;34251;-91
2023/02/12 08:34:54;;;;;;;0.30;0.30;;;;;;;9.83;55.46;101582.69;4379622;32;33185;-91
2023/02/12 08:37:25;;;;;;;0.77;0.77;;;;;;;10.02;55.05;101578.06;4383941;32;33006;-91
2023/02/12 08:39:58;;;;;;;1.05;0.95;;;;;;;9.60;55.97;101587.38;4383694;32;33719;-86
2023/02/12 08:42:26;;;;;;;1.37;1.27;;;;;;;9.95;55.29;101587.81;4370969;32;32977;-88
2023/02/12 08:44:54;;;;;;;0.03;0.03;;;;;;;9.78;55.87;101594.19;4395080;32;34089;-88
2023/02/12 08:47:22;;;;;;;1.95;0.75;;;;;;;9.91;55.15;101585.22;4388648;32;32862;-88
2023/02/12 08:49:49;;;;;;;0.55;0.52;;;;;;;10.20;54.42;101593.63;4381917;32;33111;-89
2023/02/12 08:52:18;;;;;;;1.70;0.73;;;;;;;10.67;53.13;101588.59;4396500;32;33019;-89
2023/02/12 08:54:46;;;;;;;0.30;0.30;;;;;;;10.67;52.76;101588.59;4396384;32;33701;-88
2023/02/12 08:57:13;;;;;;;0.70;0.70;;;;;;;10.76;52.69;101593.72;4365594;32;33761;-89
2023/02/12 08:59:41;;;;;;;1.17;1.08;;;;;;;10.85;51.98;101593.59;4382000;32;32010;-88
2023/02/12 09:02:09;;;;;;;0.68;0.68;;;;;;;10.52;53.26;101600.25;4377439;32;34239;-87
2023/02/12 09:04:38;;;;;;;6.32;1.92;;;;;;;10.82;52.50;101598.91;4381938;32;33099;-86
2023/02/12 09:07:06;;;;;;;1.80;1.05;;;;;;;10.80;52.57;101606.00;4376876;32;33154;-88
2023/02/12 09:09:37;;;;;;;0.10;0.10;;;;;;;10.93;51.87;101610.19;4382395;32;32796;-86
2023/02/12 09:12:04;;;;;;;1.10;1.10;;;;;;;10.80;52.17;101613.94;4381396;32;33586;-86
2023/02/12 09:14:32;;;;;;;0.82;0.70;;;;;;;10.77;52.33;101612.19;4370363;32;33810;-85
2023/02/12 09:17:00;;;;;;;1.27;1.17;;;;;;;11.05;51.93;101614.41;4381111;32;33893;-85
2023/02/12 09:19:28;;;;;;;0.03;0.03;;;;;;;10.93;51.99;101617.25;4361006;32;32418;-88
2023/02/12 09:21:56;;;;;;;1.00;0.95;;;;;;;11.28;50.85;101619.28;4364976;32;32843;-88
2023/02/12 09:24:26;;;;;;;0.55;0.55;;;;;;;11.39;50.64;101617.31;4381042;32;33921;-88
2023/02/12 09:26:54;;;;;;;1.50;1.15;;;;;;;11.46;50.20;101618.97;4375765;32;34805;-89
2023/02/12 09:29:22;;;;;;;0.62;0.52;;;;;;;11.29;51.05;101626.31;4382258;32;33407;-88
2023/02/12 09:31:50;;;;;;;0.22;0.22;;;;;;;11.80;49.30;101628.91;4372358;32;33672;-89
2023/02/12 09:34:19;;;;;;;2.80;1.42;;;;;;;11.87;49.15;101630.59;4392746;32;34108;-89
2023/02/12 09:36:47;;;;;;;0.65;0.65;;;;;;;12.07;48.55;101634.59;4379866;32;32940;-89
2023/02/12 09:39:15;;;;;;;0.90;0.90;;;;;;;11.71;49.34;101623.78;4382167;32;34263;-89
2023/02/12 09:42:01;;;;;;;2.00;0.93;;;;;;;11.67;49.19;101635.34;4383225;32;34083;-89
2023/02/12 09:44:47;;;;;;;0.70;0.70;;;;;;;11.62;49.02;101634.56;4382407;32;33334;-87
2023/02/12 09:47:30;;;;;;;0.88;0.88;;;;;;;11.51;49.50;101622.41;4379441;32;32810;-88
2023/02/12 09:50:16;;;;;;;0.45;0.45;;;;;;;12.26;47.15;101623.59;4382106;32;33022;-88
2023/02/12 09:52:44;;;;;;;1.50;1.00;;;;;;;12.24;47.76;101625.38;4395140;32;32993;-85
2023/02/12 09:55:17;;;;;;;1.65;1.52;;;;;;;12.09;48.20;101625.69;4369748;32;33121;-86
2023/02/12 09:57:45;;;;;;;3.53;1.65;;;;;;;12.28;47.41;101628.84;4395243;32;32688;-89
2023/02/12 10:00:19;;;;;;;0.30;0.30;;;;;;;12.12;47.45;101625.66;4383387;32;33043;-91
2023/02/12 10:02:50;;;;;;;15.82;1.20;;;;;;;12.44;47.03;101632.91;4388660;32;34623;-90
2023/02/12 10:05:22;;;;;;;;;;;;;;;12.46;47.62;101638.16;4384459;32;33165;-89
2023/02/12 10:08:13;;;;;;;2.12;0.90;;;;;;;12.97;45.89;101641.38;4382077;32;32998;-91
2023/02/12 10:10:50;;;;;;;0.90;0.85;;;;;;;12.86;46.03;101630.16;4376476;32;32611;-91
2023/02/12 10:13:35;;;;;;;0.35;0.35;;;;;;;13.52;44.52;101641.78;4383413;32;33868;-89
2023/02/12 10:16:36;;;;;;;1.23;1.23;;;;;;;13.61;44.67;101643.34;4373715;32;32978;-89
2023/02/12 10:19:18;;;;;;;2.37;0.80;;;;;;;13.58;44.31;101646.94;4370952;32;32661;-92
2023/02/12 10:22:02;;;;;;;0.40;0.40;;;;;;;12.93;46.01;101652.97;4396536;32;34154;-89
2023/02/12 10:25:11;;;;;;;0.82;0.80;;;;;;;12.57;47.16;101655.56;4379893;32;32135;-89
2023/02/12 10:27:43;;;;;;;0.35;0.35;;;;;;;13.61;43.70;101649.50;4378592;32;33426;-89
2023/02/12 10:30:19;;;;;;;0.43;0.25;;;;;;;13.15;45.32;101655.09;4383984;32;33152;-89
2023/02/12 10:32:50;;;;;;;2.92;1.52;;;;;;;13.43;45.14;101663.25;4384856;32;33306;-90
2023/02/12 10:35:20;;;;;;;0.37;0.37;;;;;;;13.80;44.27;101656.06;4374575;32;33510;-89
2023/02/12 10:38:04;;;;;;;0.20;0.20;;;;;;;13.84;44.18;101656.84;4377667;32;32941;-89
2023/02/12 10:40:32;;;;;;;0.37;0.37;;;;;;;13.71;43.87;101664.28;4377188;32;33548;-89
2023/02/12 10:43:01;;;;;;;1.50;1.30;;;;;;;13.49;44.13;101658.69;4377574;32;32849;-89
2023/02/12 10:45:38;;;;;;;1.30;1.20;;;;;;;13.00;45.51;101659.84;4370975;32;32882;-90
2023/02/12 10:48:17;;;;;;;2.45;1.65;;;;;;;12.97;45.05;101662.59;4379231;32;32479;-89
2023/02/12 10:50:59;;;;;;;0.22;0.22;;;;;;;12.92;45.19;101669.78;4386217;32;33164;-92
2023/02/12 10:53:41;;;;;;;1.90;0.20;;;;;;;12.58;46.33;101661.75;4382714;32;32019;-91
2023/02/12 10:56:19;;;;;;;1.08;0.75;;;;;;;12.98;45.75;101661.69;4375387;32;32855;-91
2023/02/12 10:58:56;;;;;;;1.02;0.90;;;;;;;13.15;44.95;101665.69;4381960;32;33229;-91
2023/02/12 11:01:27;;;;;;;1.33;1.23;;;;;;;13.47;43.94;101664.91;4386657;32;32779;-91
2023/02/12 11:03:59;;;;;;;4.32;1.40;;;;;;;13.53;43.44;101660.34;4399586;32;32072;-90
2023/02/12 11:06:29;;;;;;;0.70;0.60;;;;;;;13.30;44.29;101660.06;4381359;32;34529;-90
2023/02/12 11:08:58;;;;;;;0.15;0.15;;;;;;;12.89;44.49;101661.03;4370582;32;34062;-91
2023/02/12 11:11:30;;;;;;;0.47;0.47;;;;;;;13.49;43.13;101658.69;4377995;32;31904;-90
2023/02/12 11:14:02;;;;;;;0.55;0.55;;;;;;;13.38;43.39;101665.16;4380745;32;31827;-91
2023/02/12 11:16:31;;;;;;;0.70;0.70;;;;;;;12.89;44.97;101659.25;4371253;32;34272;-91
2023/02/12 11:19:22;;;;;;;1.40;0.70;;;;;;;12.75;45.95;101658.69;4393336;32;32733;-90
2023/02/12 11:21:51;;;;;;;0.57;0.57;;;;;;;12.97;44.62;101659.94;4383117;32;33691;-90
2023/02/12 11:24:20;;;;;;;1.95;1.17;;;;;;;12.64;45.99;101666.03;4382790;32;34371;-91
2023/02/12 11:26:48;;;;;;;3.15;0.43;;;;;;;13.45;42.89;101666.75;4390359;32;32571;-91
2023/02/12 11:29:23;;;;;;;1.08;0.98;;;;;;;13.15;44.38;101663.03;4382896;32;32998;-91
2023/02/12 11:32:07;;;;;;;0.17;0.17;;;;;;;13.29;43.47;101660.94;4381465;32;32997;-89
2023/02/12 11:34:35;;;;;;;0.75;0.75;;;;;;;13.65;42.25;101666.22;4385252;32;33046;-90
2023/02/12 11:37:13;;;;;;;0.55;0.55;;;;;;;13.41;42.37;101673.06;4378446;32;33669;-90
2023/02/12 11:39:45;;;;;;;0.28;0.28;;;;;;;13.28;42.62;101669.81;4384113;32;32915;-90
2023/02/12 11:42:19;;;;;;;0.75;0.75;;;;;;;13.33;42.47;101674.09;4384338;32;33176;-90
2023/02/12 11:44:50;;;;;;;13.82;2.65;;;;;;;13.19;42.74;101668.25;4382311;32;32071;-89
2023/02/12 11:47:29;;;;;;;0.82;0.80;;;;;;;12.77;43.94;101667.47;4382105;32;33036;-90
2023/02/12 11:49:59;;;;;;;0.00;0.00;;;;;;;13.02;43.60;101663.38;4371430;32;32896;-89
2023/02/12 11:52:28;;;;;;;0.65;0.40;;;;;;;13.21;42.21;101666.44;4389337;32;33531;-89
2023/02/12 11:55:23;;;;;;;2.20;1.62;;;;;;;13.14;42.37;101671.91;4373965;32;32749;-90
2023/02/12 11:57:53;;;;;;;0.10;0.10;;;;;;;12.99;42.71;101671.38;4368239;32;32884;-90
2023/02/12 12:00:35;;;;;;;0.15;0.15;;;;;;;12.76;43.49;101671.91;4394283;32;33459;-90
2023/02/12 12:03:03;;;;;;;;;;;;;;;13.36;41.79;101667.87;4383071;32;33025;-90
2023/02/12 12:05:36;;;;;;;0.85;0.73;;;;;;;13.05;42.21;101667.69;4396396;32;32141;-90
2023/02/12 12:08:14;;;;;;;0.00;0.00;;;;;;;13.19;41.77;101670.03;4382033;32;33693;-90
2023/02/12 12:10:47;;;;;;;0.10;0.10;;;;;;;12.84;43.41;101665.56;4385618;32;32964;-90
2023/02/12 12:13:17;;;;;;;;;;;;;;;13.01;42.85;101660.75;4360125;32;34156;-90
2023/02/12 12:21:52;;;;;;;1.42;1.23;;;;;;;13.52;41.32;101658.56;4397428;32;33867;-90
2023/02/12 12:24:27;;;;;;;0.55;0.45;;;;;;;13.35;41.47;101646.69;4383687;32;33160;-90
2023/02/12 12:27:03;;;;;;;0.25;0.25;;;;;;;13.11;42.61;101650.78;4383193;32;32320;-90
2023/02/12 12:29:45;;;;;;;0.55;0.47;;;;;;;13.00;42.54;101646.59;4376096;32;32540;-90
2023/02/12 12:32:14;;;;;;;0.68;0.37;;;;;;;12.83;42.78;101646.16;4394705;32;34019;-90
2023/02/12 12:34:43;;;;;;;4.25;0.85;;;;;;;12.92;43.78;101645.94;4364107;32;33858;-91
2023/02/12 12:37:24;;;;;;;0.43;0.43;;;;;;;13.04;43.05;101650.91;4369258;32;31965;-89
2023/02/12 12:40:12;;;;;;;1.75;1.20;;;;;;;13.09;42.05;101645.50;4384623;32;33219;-90
2023/02/12 12:42:58;;;;;;;0.47;0.45;;;;;;;13.08;42.07;101644.63;4385091;32;34106;-90
2023/02/12 12:45:52;;;;;;;2.47;1.33;;;;;;;13.35;41.58;101647.56;4398243;32;33491;-89
2023/02/12 12:48:22;;;;;;;;;;;;;;;13.25;42.02;101638.97;4395651;32;33516;-91
2023/02/12 12:51:22;;;;;;;0.80;0.80;;;;;;;13.25;41.80;101640.75;4384489;32;34175;-90
2023/02/12 12:54:23;;;;;;;0.30;0.30;;;;;;;13.34;41.98;101643.16;4378892;32;33243;-90
2023/02/12 12:57:15;;;;;;;1.48;1.20;;;;;;;13.30;41.87;101641.50;4376865;32;32857;-90
2023/02/12 12:59:53;;;;;;;0.52;0.52;;;;;;;13.44;41.55;101639.34;4371993;32;34240;-89